createdAt,value
2023-01-30T00:02:42.050Z,15.93
2023-01-30T00:12:46.672Z,16.90
2023-01-30T00:23:00.538Z,16.43
2023-01-30T00:33:05.616Z,16.47
2023-01-30T00:43:27.473Z,16.03
2023-01-30T00:53:32.102Z,16.13
2023-01-30T01:03:35.369Z,16.57
2023-01-30T01:13:39.911Z,17.13
2023-01-30T01:23:43.229Z,15.63
2023-01-30T01:33:47.876Z,16.80
2023-01-30T01:44:06.014Z,16.57
2023-01-30T01:54:14.768Z,16.97
2023-01-30T02:04:38.861Z,15.97
2023-01-30T02:14:44.797Z,16.60
2023-01-30T02:25:20.559Z,17.13
2023-01-30T02:35:30.875Z,15.60
2023-01-30T02:45:43.153Z,15.40
2023-01-30T02:55:50.294Z,14.67
2023-01-30T03:06:24.343Z,16.20
2023-01-30T03:16:34.311Z,15.77
2023-01-30T03:26:41.853Z,15.10
2023-01-30T03:36:48.272Z,15.60
2023-01-30T03:46:52.359Z,14.70
2023-01-30T03:56:57.582Z,15.63
2023-01-30T04:07:01.235Z,15.33
2023-01-30T04:17:06.747Z,15.30
2023-01-30T04:27:39.238Z,15.37
2023-01-30T04:37:55.929Z,14.97
2023-01-30T04:47:59.210Z,15.87
2023-01-30T04:58:04.197Z,15.60
2023-01-30T05:08:07.737Z,15.60
2023-01-30T05:18:12.268Z,15.23
2023-01-30T05:28:15.445Z,16.13
2023-01-30T05:38:20.030Z,16.07
2023-01-30T05:48:23.996Z,14.30
2023-01-30T05:58:29.219Z,15.37
2023-01-30T06:08:33.211Z,16.03
2023-01-30T06:18:37.809Z,15.90
2023-01-30T06:28:40.969Z,16.30
2023-01-30T06:38:45.484Z,16.60
2023-01-30T06:48:48.914Z,16.00
2023-01-30T06:58:53.470Z,15.47
2023-01-30T07:08:58.447Z,15.47
2023-01-30T07:19:03.020Z,16.33
2023-01-30T07:29:06.193Z,16.20
2023-01-30T07:39:10.915Z,16.67
2023-01-30T07:49:14.103Z,15.83
2023-01-30T07:59:18.824Z,16.30
2023-01-30T08:09:22.049Z,17.40
2023-01-30T08:19:26.590Z,16.23
2023-01-30T08:29:29.848Z,16.23
2023-01-30T08:39:36.359Z,16.60
2023-01-30T08:49:40.315Z,17.87
2023-01-30T08:59:44.867Z,17.17
2023-01-30T09:09:48.599Z,17.43
2023-01-30T09:19:53.258Z,17.10
2023-01-30T09:29:56.500Z,17.63
2023-01-30T09:40:00.987Z,17.07
2023-01-30T09:50:18.088Z,18.80
2023-01-30T10:00:27.645Z,17.97
2023-01-30T10:10:45.373Z,17.70
2023-01-30T10:20:59.467Z,18.50
2023-01-30T10:31:07.971Z,18.10
2023-01-30T10:41:21.288Z,17.90
2023-01-30T10:51:38.895Z,17.57
2023-01-30T11:01:49.124Z,17.33
2023-01-30T11:11:54.175Z,18.50
2023-01-30T11:22:06.023Z,17.83
2023-01-30T11:32:16.102Z,17.17
2023-01-30T11:42:25.268Z,17.63
2023-01-30T11:52:31.186Z,17.10
2023-01-30T12:02:39.333Z,17.47
2023-01-30T12:12:48.092Z,16.10
2023-01-30T12:23:04.691Z,14.50
2023-01-30T12:33:15.442Z,16.53
2023-01-30T12:43:40.080Z,15.57
2023-01-30T12:53:56.103Z,15.13
2023-01-30T13:04:10.237Z,15.20
2023-01-30T13:14:26.712Z,15.30
2023-01-30T13:24:44.491Z,15.03
2023-01-30T13:34:49.489Z,15.23
2023-01-30T13:44:55.476Z,15.80
2023-01-30T13:55:04.519Z,13.07
2023-01-30T14:05:10.710Z,12.57
2023-01-30T14:15:27.295Z,10.90
2023-01-30T14:25:45.273Z,9.30
2023-01-30T14:35:49.396Z,9.87
2023-01-30T14:45:56.223Z,5.97
2023-01-30T14:56:05.039Z,11.30
2023-01-30T15:06:09.688Z,13.23
2023-01-30T15:16:47.346Z,12.63
2023-01-30T15:26:58.455Z,11.93
2023-01-30T15:37:01.858Z,12.63
2023-01-30T15:47:38.297Z,11.80
2023-01-30T15:57:43.673Z,11.53
2023-01-30T16:07:50.232Z,10.60
2023-01-30T16:18:01.109Z,10.77
2023-01-30T16:28:06.464Z,10.20
2023-01-30T16:38:32.031Z,10.40
2023-01-30T16:48:37.836Z,10.27
2023-01-30T16:58:41.291Z,9.10
2023-01-30T17:08:52.240Z,10.00
2023-01-30T17:18:58.056Z,9.47
2023-01-30T17:29:02.648Z,10.97
2023-01-30T17:39:12.530Z,9.77
2023-01-30T17:49:20.996Z,9.80
2023-01-30T17:59:24.186Z,13.87
2023-01-30T18:09:29.865Z,14.90
2023-01-30T18:19:33.099Z,9.03
2023-01-30T18:29:37.662Z,10.10
2023-01-30T18:39:41.185Z,9.77
2023-01-30T18:49:46.159Z,10.37
2023-01-30T18:59:49.300Z,12.40
2023-01-30T19:09:53.917Z,10.50
2023-01-30T19:19:59.949Z,10.93
2023-01-30T19:30:05.680Z,10.60
2023-01-30T19:40:10.967Z,10.00
2023-01-30T19:50:15.711Z,10.57
2023-01-30T20:00:20.262Z,11.30
2023-01-30T20:10:24.958Z,12.47
2023-01-30T20:20:30.455Z,12.10
2023-01-30T20:30:35.910Z,10.30
2023-01-30T20:40:39.794Z,8.87
2023-01-30T20:50:44.328Z,8.27
2023-01-30T21:00:47.567Z,8.57
2023-01-30T21:10:52.163Z,9.30
2023-01-30T21:20:55.351Z,9.23
2023-01-30T21:31:05.112Z,8.07
2023-01-30T21:41:29.587Z,8.80
2023-01-30T21:51:34.486Z,8.43
2023-01-30T22:01:38.891Z,8.77
2023-01-30T22:11:43.671Z,9.20
2023-01-30T22:21:46.898Z,9.50
2023-01-30T22:31:51.678Z,8.97
2023-01-30T22:41:55.057Z,8.33
2023-01-30T22:52:01.618Z,9.20
2023-01-30T23:02:05.061Z,8.80
2023-01-30T23:12:27.187Z,8.63
2023-01-30T23:22:30.433Z,8.67
2023-01-30T23:32:35.558Z,8.13
2023-01-30T23:42:38.844Z,8.63
2023-01-30T23:52:44.902Z,8.20
